Detall de PIREP

Printer-friendly versionPDF version

[2013/07/29 19:47:00]
Flight IATA:CT1004
Pilot Number:026
Company ICAO:CAT
Aircraft Type:DC85/A
PAX:132
Aircraft Registration:PAX
Departing Airport: LEBL
Destination Airport: LPAZ
Alternate Airport:LPPD
Online: VATSIM
Route:SENIA UZ596 NEXAS UN975 CCS DCT BUSEN DCT KOMUT 3820N BEKUN
Flight Level:F320
No Slew and time accel
No pause
Crash detect
Detect pilot in Cockpit between each 30 and 45 minutes
19:47 Zero fuel Weight: 177886 Lbs, Fuel Weight: 53955 Lbs
19:47 VATSIM:LEBL 291930Z VRB02KT 9999 FEW030 27/15 Q1022 NOSIG
19:47 VATSIM:LPAZ 291900Z 23008KT 9999 FEW016 SCT035 24/21 Q1023
19:47 VOICE CATALONIAN / SUMMER CHARTER
19:55 Parking Brakes off
20:05 Take-off
20:05 Take off Weight: 230384 Lbs
20:05 Wind: 117º @ 004 Knots Heading: 066º
20:05 POS N41º 17´ 26´´ E002º 05´ 56´´
20:05 Flaps:2 at 170 Knots
20:05 Gear Up: 171 Knots
20:06 Flaps:1 at 255 Knots
20:08 Flaps:0 at 195 Knots
20:08 Flaps:1 at 172 Knots
20:08 Flaps:0 at 170 Knots
20:20 Wind:130º@012 Knots Heading: 261º Ground Speed: 391 Knots Altitude 28999 ft
20:23 TOC
20:23 Fuel Weight: 46765 Lb
20:35 Wind:318º@006 Knots Heading: 254º Ground Speed: 492 Knots Altitude 32290 ft
20:50 Wind:223º@019 Knots Heading: 252º Ground Speed: 476 Knots Altitude 32296 ft
21:05 Wind:281º@007 Knots Heading: 258º Ground Speed: 480 Knots Altitude 32276 ft
21:20 Wind:314º@019 Knots Heading: 252º Ground Speed: 475 Knots Altitude 32273 ft
21:35 Wind:324º@030 Knots Heading: 266º Ground Speed: 467 Knots Altitude 32286 ft
21:50 Wind:325º@026 Knots Heading: 263º Ground Speed: 471 Knots Altitude 32290 ft
22:05 Wind:342º@021 Knots Heading: 273º Ground Speed: 475 Knots Altitude 32293 ft
22:20 Wind:340º@007 Knots Heading: 270º Ground Speed: 480 Knots Altitude 32290 ft
22:35 Wind:201º@012 Knots Heading: 267º Ground Speed: 479 Knots Altitude 32276 ft
22:42 TOD
22:42 Fuel Weight: 14118 Lb
22:50 Wind:196º@023 Knots Heading: 235º Ground Speed: 407 Knots Altitude 22887 ft
23:05 Wind:199º@011 Knots Heading: 234º Ground Speed: 221 Knots Altitude 3487 ft
23:15 Flaps:1 at 183 Knots
23:16 Gear Down: 152 Knots
23:17 Flaps:2 at 157 Knots
23:17 Flaps:3 at 137 Knots
23:18 Flaps:4 at 145 Knots
23:18 Flaps:5 at 137 Knots
23:18 TouchDown:Rate -288 ft/min Speed: 116 Knots
23:18 VATSIM:LPAZ 292230Z 20007KT 9999 FEW014 21/20 Q1024
23:18 Land
23:18 Wind:212º@007 Knots
23:18 Heading: 172º
23:18 Flight Duration: 03:13
23:18 Landing Weight: 187792 Lbs
23:18 POS N36º 58´ 26´´ W025º 10´ 16´´
23:23 Parking brakes on
23:23 Block to Block Duration: 03:28
23:23 Final Fuel: 9442 Lbls
23:23 Spent Fuel: 44512 Lbls
23:23 Flight Length: 1276 NM
23:23 TOD Land Length: 183 NM

Exportar CSV

Powered by Drupal - Modified by Danger4k